createdAt,value
2023-05-13T00:00:07.305Z,91.26
2023-05-13T00:03:11.804Z,91.30
2023-05-13T00:06:14.656Z,91.50
2023-05-13T00:09:17.383Z,91.28
2023-05-13T00:12:20.055Z,90.86
2023-05-13T00:15:22.990Z,90.94
2023-05-13T00:18:27.185Z,91.24
2023-05-13T00:21:30.016Z,91.16
2023-05-13T00:24:32.751Z,90.55
2023-05-13T00:27:35.405Z,90.68
2023-05-13T00:30:38.515Z,91.05
2023-05-13T00:33:42.689Z,90.78
2023-05-13T00:36:45.591Z,90.78
2023-05-13T00:39:48.437Z,90.93
2023-05-13T00:42:51.471Z,90.43
2023-05-13T00:45:54.379Z,90.73
2023-05-13T00:48:59.581Z,90.18
2023-05-13T00:52:03.086Z,89.84
2023-05-13T00:55:07.144Z,89.50
2023-05-13T00:58:10.069Z,89.36
2023-05-13T01:01:20.367Z,89.57
2023-05-13T01:04:31.481Z,89.06
2023-05-13T01:07:39.507Z,88.52
2023-05-13T01:10:46.206Z,88.44
2023-05-13T01:13:53.705Z,87.88
2023-05-13T01:17:07.158Z,87.46
2023-05-13T01:20:13.254Z,87.69
2023-05-13T01:23:17.346Z,87.34
2023-05-13T01:26:20.397Z,87.50
2023-05-13T01:29:23.113Z,87.26
2023-05-13T01:32:26.421Z,87.07
2023-05-13T01:35:30.898Z,87.21
2023-05-13T01:38:36.365Z,86.52
2023-05-13T01:41:39.186Z,87.29
2023-05-13T01:44:41.983Z,86.95
2023-05-13T01:47:44.759Z,87.10
2023-05-13T01:50:47.459Z,86.95
2023-05-13T01:53:51.789Z,87.50
2023-05-13T01:56:54.616Z,87.90
2023-05-13T01:59:57.236Z,87.64
2023-05-13T02:03:00.120Z,87.48
2023-05-13T02:06:03.141Z,87.00
2023-05-13T02:09:07.530Z,86.78
2023-05-13T02:12:10.445Z,87.06
2023-05-13T02:15:14.085Z,87.68
2023-05-13T02:18:16.848Z,87.85
2023-05-13T02:21:19.610Z,88.39
2023-05-13T02:24:23.681Z,88.30
2023-05-13T02:27:26.488Z,88.97
2023-05-13T02:30:29.158Z,89.66
2023-05-13T02:33:32.041Z,90.09
2023-05-13T02:36:34.750Z,89.90
2023-05-13T02:39:38.938Z,90.60
2023-05-13T02:42:43.265Z,91.24
2023-05-13T02:45:48.873Z,91.56
2023-05-13T02:48:51.591Z,91.79
2023-05-13T02:51:54.345Z,91.92
2023-05-13T02:54:58.460Z,91.96
2023-05-13T02:58:01.334Z,92.48
2023-05-13T03:01:04.112Z,93.41
2023-05-13T03:04:06.923Z,92.76
2023-05-13T03:07:09.998Z,93.25
2023-05-13T03:10:15.220Z,92.70
2023-05-13T03:13:17.987Z,92.50
2023-05-13T03:16:20.682Z,91.73
2023-05-13T03:19:23.433Z,91.29
2023-05-13T03:22:26.123Z,90.66
2023-05-13T03:25:30.300Z,90.05
2023-05-13T03:28:32.934Z,90.21
2023-05-13T03:31:35.644Z,90.10
2023-05-13T03:34:38.381Z,89.74
2023-05-13T03:37:41.100Z,89.93
2023-05-13T03:40:45.176Z,89.35
2023-05-13T03:43:47.938Z,89.34
2023-05-13T03:46:50.708Z,89.17
2023-05-13T03:49:53.462Z,89.53
2023-05-13T03:52:57.113Z,88.56
2023-05-13T03:56:01.206Z,88.85
2023-05-13T03:59:03.900Z,89.47
2023-05-13T04:02:06.815Z,89.04
2023-05-13T04:05:10.961Z,88.42
2023-05-13T04:08:14.103Z,88.37
2023-05-13T04:11:18.135Z,88.51
2023-05-13T04:14:20.908Z,89.29
2023-05-13T04:17:23.731Z,88.03
2023-05-13T04:20:26.788Z,87.63
2023-05-13T04:23:29.485Z,88.39
2023-05-13T04:26:33.561Z,88.15
2023-05-13T04:29:36.269Z,88.21
2023-05-13T04:32:39.194Z,88.40
2023-05-13T04:35:42.141Z,89.00
2023-05-13T04:38:45.041Z,88.61
2023-05-13T04:41:49.078Z,88.32
2023-05-13T04:44:51.742Z,88.21
2023-05-13T04:47:56.217Z,88.18
2023-05-13T04:51:00.911Z,88.47
2023-05-13T04:54:04.031Z,87.51
2023-05-13T04:57:08.228Z,87.73
2023-05-13T05:00:12.275Z,87.47
2023-05-13T05:03:15.044Z,88.27
2023-05-13T05:06:18.048Z,87.78
2023-05-13T05:09:20.926Z,87.57
2023-05-13T05:12:25.122Z,87.36
2023-05-13T05:15:27.869Z,86.24
2023-05-13T05:18:30.678Z,85.87
2023-05-13T05:21:33.486Z,85.50
2023-05-13T05:24:36.285Z,86.05
2023-05-13T05:27:40.328Z,85.58
2023-05-13T05:30:43.254Z,86.32
2023-05-13T05:33:45.939Z,85.75
2023-05-13T05:36:48.817Z,85.27
2023-05-13T05:39:51.519Z,84.67
2023-05-13T05:42:55.750Z,84.56
2023-05-13T05:45:58.488Z,84.70
2023-05-13T05:49:03.827Z,84.68
2023-05-13T05:52:07.205Z,83.98
2023-05-13T05:55:10.748Z,83.32
2023-05-13T05:58:17.715Z,83.60
2023-05-13T06:01:20.594Z,83.66
2023-05-13T06:04:23.256Z,84.02
2023-05-13T06:07:26.218Z,83.09
2023-05-13T06:10:29.100Z,82.92
2023-05-13T06:13:33.210Z,82.78
2023-05-13T06:16:36.062Z,82.91
2023-05-13T06:19:38.922Z,82.98
2023-05-13T06:22:41.881Z,82.74
2023-05-13T06:25:44.614Z,82.96
2023-05-13T06:28:49.110Z,82.49
2023-05-13T06:31:51.988Z,83.17
2023-05-13T06:34:55.918Z,83.51
2023-05-13T06:37:58.871Z,83.60
2023-05-13T06:41:01.619Z,83.68
2023-05-13T06:44:06.595Z,83.30
2023-05-13T06:47:14.640Z,83.39
2023-05-13T06:50:17.704Z,83.18
2023-05-13T06:53:20.373Z,82.48
2023-05-13T06:56:24.053Z,82.75
2023-05-13T06:59:28.069Z,81.45
2023-05-13T07:02:30.800Z,80.85
2023-05-13T07:05:34.042Z,81.38
2023-05-13T07:08:36.793Z,80.56
2023-05-13T07:11:40.034Z,81.07
2023-05-13T07:14:45.303Z,81.81
2023-05-13T07:17:48.152Z,81.04
2023-05-13T07:20:51.185Z,80.79
2023-05-13T07:23:53.871Z,80.48
2023-05-13T07:26:56.589Z,80.68
2023-05-13T07:30:00.699Z,79.85
2023-05-13T07:33:03.388Z,80.69
2023-05-13T07:36:06.961Z,81.48
2023-05-13T07:39:09.882Z,81.69
2023-05-13T07:42:12.713Z,81.19
2023-05-13T07:45:16.759Z,81.27
2023-05-13T07:48:19.729Z,81.10
2023-05-13T07:51:22.544Z,80.33
2023-05-13T07:54:25.241Z,80.34
2023-05-13T07:57:27.874Z,79.91
2023-05-13T08:00:31.979Z,79.58
2023-05-13T08:03:34.778Z,80.43
2023-05-13T08:06:37.665Z,81.31
2023-05-13T08:09:40.534Z,81.45
2023-05-13T08:12:43.491Z,81.18
2023-05-13T08:15:47.553Z,80.96
2023-05-13T08:18:50.453Z,81.37
2023-05-13T08:21:53.099Z,81.71
2023-05-13T08:24:55.886Z,80.77
2023-05-13T08:27:58.849Z,81.38
2023-05-13T08:31:03.484Z,80.83
2023-05-13T08:34:06.497Z,80.70
2023-05-13T08:37:09.196Z,81.58
2023-05-13T08:40:13.309Z,81.18
2023-05-13T08:43:17.201Z,79.57
2023-05-13T08:46:25.171Z,80.02
2023-05-13T08:49:28.452Z,79.99
2023-05-13T08:52:32.546Z,79.37
2023-05-13T08:55:35.342Z,79.26
2023-05-13T08:58:38.010Z,79.01
2023-05-13T09:01:42.266Z,79.41
2023-05-13T09:04:50.775Z,79.08
2023-05-13T09:07:54.490Z,79.49
2023-05-13T09:10:57.778Z,79.38
2023-05-13T09:14:01.519Z,79.48
2023-05-13T09:17:06.109Z,78.30
2023-05-13T09:20:09.963Z,78.67
2023-05-13T09:23:14.072Z,78.79
2023-05-13T09:26:28.185Z,79.25
2023-05-13T09:29:31.043Z,78.82
2023-05-13T09:32:35.295Z,76.96
2023-05-13T09:35:39.433Z,77.50
2023-05-13T09:38:42.175Z,77.85
2023-05-13T09:41:45.168Z,77.80
2023-05-13T09:44:48.868Z,76.20
2023-05-13T09:47:53.498Z,75.92
2023-05-13T09:50:58.069Z,77.30
2023-05-13T09:54:06.164Z,77.07
2023-05-13T09:57:08.909Z,77.12
2023-05-13T10:00:21.141Z,76.96
2023-05-13T10:03:33.770Z,76.19
2023-05-13T10:06:37.611Z,77.07
2023-05-13T10:09:41.814Z,78.58
2023-05-13T10:12:44.894Z,78.49
2023-05-13T10:15:50.911Z,78.84
2023-05-13T10:18:55.781Z,78.20
2023-05-13T10:21:59.360Z,79.28
2023-05-13T10:25:04.125Z,79.00
2023-05-13T10:28:07.260Z,77.99
2023-05-13T10:31:10.480Z,78.49
2023-05-13T10:34:14.771Z,78.20
2023-05-13T10:37:51.381Z,78.50
2023-05-13T10:41:10.064Z,78.41
2023-05-13T10:44:13.292Z,78.85
2023-05-13T10:47:18.185Z,78.75
2023-05-13T10:50:28.841Z,79.07
2023-05-13T10:53:33.165Z,79.30
2023-05-13T10:56:36.228Z,79.40
2023-05-13T11:00:20.620Z,79.21
2023-05-13T11:03:30.828Z,79.67
2023-05-13T11:06:37.808Z,79.27
2023-05-13T11:09:40.458Z,79.38
2023-05-13T11:12:43.224Z,79.54
2023-05-13T11:15:46.530Z,79.68
2023-05-13T11:18:49.592Z,79.21
2023-05-13T11:21:55.514Z,79.66
2023-05-13T11:25:06.156Z,77.31
2023-05-13T11:28:09.099Z,78.19
2023-05-13T11:31:18.162Z,77.90
2023-05-13T11:34:21.413Z,76.46
2023-05-13T11:37:25.528Z,76.49
2023-05-13T11:40:29.713Z,76.73
2023-05-13T11:43:34.724Z,77.01
2023-05-13T11:46:37.924Z,76.94
2023-05-13T11:49:42.296Z,77.00
2023-05-13T11:52:46.538Z,76.85
2023-05-13T11:55:49.819Z,76.75
2023-05-13T11:58:53.284Z,76.09
2023-05-13T12:02:02.382Z,75.36
2023-05-13T12:05:07.008Z,75.61
2023-05-13T12:08:11.711Z,74.51
2023-05-13T12:11:14.961Z,71.83
2023-05-13T12:14:18.303Z,70.84
2023-05-13T12:17:22.671Z,72.26
2023-05-13T12:20:26.150Z,72.81
2023-05-13T12:23:40.848Z,74.12
2023-05-13T12:26:43.660Z,74.82
2023-05-13T12:29:46.608Z,73.39
2023-05-13T12:32:49.270Z,73.55
2023-05-13T12:35:53.528Z,72.81
2023-05-13T12:39:00.491Z,73.76
2023-05-13T12:42:03.804Z,73.67
2023-05-13T12:45:08.012Z,73.19
2023-05-13T12:48:11.891Z,72.80
2023-05-13T12:51:15.874Z,73.26
2023-05-13T12:54:20.118Z,72.32
2023-05-13T12:57:22.923Z,72.11
2023-05-13T13:00:25.803Z,72.17
2023-05-13T13:03:28.772Z,72.10
2023-05-13T13:06:32.446Z,73.03
2023-05-13T13:09:37.228Z,71.24
2023-05-13T13:12:40.298Z,72.57
2023-05-13T13:15:43.154Z,73.44
2023-05-13T13:18:46.096Z,69.03
2023-05-13T13:21:48.993Z,67.48
2023-05-13T13:24:53.003Z,68.54
2023-05-13T13:27:55.796Z,67.69
2023-05-13T13:30:59.586Z,69.31
2023-05-13T13:34:04.449Z,67.08
2023-05-13T13:37:07.170Z,69.40
2023-05-13T13:40:13.503Z,69.37
2023-05-13T13:43:16.301Z,70.14
2023-05-13T13:46:19.037Z,71.25
2023-05-13T13:49:24.133Z,73.11
2023-05-13T13:52:28.540Z,71.06
2023-05-13T13:55:32.647Z,72.59
2023-05-13T13:58:35.918Z,72.04
2023-05-13T14:01:40.350Z,70.14
2023-05-13T14:04:43.041Z,71.05
2023-05-13T14:07:46.387Z,70.78
2023-05-13T14:10:50.747Z,69.04
2023-05-13T14:13:53.615Z,70.25
2023-05-13T14:16:56.382Z,67.02
2023-05-13T14:19:59.141Z,69.06
2023-05-13T14:23:03.311Z,68.76
2023-05-13T14:26:09.608Z,69.47
2023-05-13T14:29:12.311Z,69.28
2023-05-13T14:32:15.190Z,67.45
2023-05-13T14:35:18.801Z,67.32
2023-05-13T14:38:21.475Z,67.41
2023-05-13T14:41:25.704Z,69.44
2023-05-13T14:44:28.483Z,70.04
2023-05-13T14:47:31.569Z,70.80
2023-05-13T14:50:34.313Z,69.74
2023-05-13T14:53:37.005Z,71.64
2023-05-13T14:56:41.983Z,71.43
2023-05-13T14:59:44.686Z,70.30
2023-05-13T15:02:47.465Z,70.85
2023-05-13T15:05:51.605Z,71.88
2023-05-13T15:08:54.637Z,72.03
2023-05-13T15:11:58.703Z,71.43
2023-05-13T15:15:01.408Z,71.01
2023-05-13T15:18:04.204Z,71.99
2023-05-13T15:21:07.043Z,71.62
2023-05-13T15:24:09.789Z,70.63
2023-05-13T15:27:14.176Z,70.76
2023-05-13T15:30:17.034Z,69.19
2023-05-13T15:33:19.732Z,70.33
2023-05-13T15:36:22.395Z,70.67
2023-05-13T15:39:25.134Z,71.26
2023-05-13T15:42:29.616Z,70.41
2023-05-13T15:45:32.522Z,70.64
2023-05-13T15:48:35.289Z,70.85
2023-05-13T15:51:37.980Z,71.43
2023-05-13T15:54:40.710Z,72.53
2023-05-13T15:57:44.804Z,72.32
2023-05-13T16:00:47.507Z,72.29
2023-05-13T16:03:50.431Z,73.71
2023-05-13T16:06:53.139Z,73.45
2023-05-13T16:09:55.921Z,73.70
2023-05-13T16:12:59.924Z,73.39
2023-05-13T16:16:02.626Z,73.65
2023-05-13T16:19:05.450Z,72.95
2023-05-13T16:22:26.399Z,74.01
2023-05-13T16:25:29.048Z,74.02
2023-05-13T16:28:33.156Z,72.39
2023-05-13T16:31:36.150Z,72.18
2023-05-13T16:34:38.816Z,73.54
2023-05-13T16:37:41.653Z,73.57
2023-05-13T16:40:44.494Z,74.46
2023-05-13T16:43:48.559Z,74.28
2023-05-13T16:46:51.340Z,74.41
2023-05-13T16:49:56.094Z,74.90
2023-05-13T16:52:58.842Z,74.84
2023-05-13T16:56:01.674Z,73.95
2023-05-13T16:59:05.759Z,73.94
2023-05-13T17:02:08.609Z,74.28
2023-05-13T17:05:11.285Z,75.32
2023-05-13T17:08:13.985Z,74.91
2023-05-13T17:11:17.556Z,74.43
2023-05-13T17:14:21.696Z,74.38
2023-05-13T17:17:24.429Z,74.00
2023-05-13T17:20:27.218Z,74.74
2023-05-13T17:23:29.878Z,75.04
2023-05-13T17:26:32.888Z,75.46
2023-05-13T17:29:37.038Z,75.72
2023-05-13T17:32:39.807Z,75.42
2023-05-13T17:35:42.546Z,76.41
2023-05-13T17:38:45.415Z,74.84
2023-05-13T17:41:48.089Z,75.62
2023-05-13T17:44:52.145Z,74.51
2023-05-13T17:47:54.935Z,74.73
2023-05-13T17:50:58.902Z,74.92
2023-05-13T17:54:01.679Z,75.49
2023-05-13T17:57:04.729Z,76.33
2023-05-13T18:00:10.074Z,76.25
2023-05-13T18:03:12.901Z,76.99
2023-05-13T18:06:16.027Z,77.63
2023-05-13T18:09:18.874Z,78.67
2023-05-13T18:12:21.553Z,79.22
2023-05-13T18:15:25.692Z,81.49
2023-05-13T18:18:28.440Z,82.91
2023-05-13T18:21:31.692Z,83.53
2023-05-13T18:24:34.455Z,84.28
2023-05-13T18:27:37.124Z,85.02
2023-05-13T18:30:41.192Z,85.71
2023-05-13T18:33:44.002Z,85.18
2023-05-13T18:36:46.876Z,84.49
2023-05-13T18:39:49.611Z,85.05
2023-05-13T18:42:52.380Z,85.33
2023-05-13T18:45:57.985Z,84.80
2023-05-13T18:49:01.045Z,85.45
2023-05-13T18:52:03.786Z,86.33
2023-05-13T18:55:07.428Z,86.99
2023-05-13T18:58:10.133Z,87.39
2023-05-13T19:01:16.382Z,87.18
2023-05-13T19:04:19.328Z,87.19
2023-05-13T19:07:22.441Z,86.85
2023-05-13T19:10:25.391Z,86.75
2023-05-13T19:13:36.227Z,87.06
2023-05-13T19:16:50.803Z,87.12
2023-05-13T19:19:53.568Z,87.28
2023-05-13T19:22:56.299Z,87.11
2023-05-13T19:25:59.294Z,87.04
2023-05-13T19:29:02.637Z,87.21
2023-05-13T19:32:07.389Z,86.84
2023-05-13T19:35:10.871Z,86.98
2023-05-13T19:38:13.632Z,86.90
2023-05-13T19:41:16.444Z,87.12
2023-05-13T19:44:19.460Z,87.07
2023-05-13T19:47:23.555Z,87.16
2023-05-13T19:50:26.370Z,87.19
2023-05-13T19:53:29.144Z,87.21
2023-05-13T19:56:31.799Z,87.51
2023-05-13T19:59:35.865Z,88.28
2023-05-13T20:02:40.639Z,88.30
2023-05-13T20:05:43.503Z,88.26
2023-05-13T20:08:46.213Z,88.04
2023-05-13T20:11:48.997Z,88.50
2023-05-13T20:14:55.476Z,88.43
2023-05-13T20:17:59.615Z,88.49
2023-05-13T20:21:02.806Z,87.75
2023-05-13T20:24:05.906Z,87.42
2023-05-13T20:27:08.614Z,87.89
2023-05-13T20:30:12.374Z,87.87
2023-05-13T20:33:16.640Z,87.84
2023-05-13T20:36:19.359Z,87.18
2023-05-13T20:39:22.116Z,87.90
2023-05-13T20:42:25.432Z,88.05
2023-05-13T20:45:28.432Z,88.12
2023-05-13T20:48:34.751Z,88.51
2023-05-13T20:51:37.547Z,89.27
2023-05-13T20:54:40.446Z,89.67
2023-05-13T20:57:44.165Z,89.79
2023-05-13T21:00:46.989Z,90.21
2023-05-13T21:03:51.092Z,90.88
2023-05-13T21:06:53.899Z,91.20
2023-05-13T21:09:56.587Z,92.00
2023-05-13T21:12:59.450Z,92.55
2023-05-13T21:16:04.806Z,93.00
2023-05-13T21:19:09.076Z,93.03
2023-05-13T21:22:11.754Z,93.53
2023-05-13T21:25:14.574Z,93.53
2023-05-13T21:28:18.713Z,93.92
2023-05-13T21:31:21.495Z,94.14
2023-05-13T21:34:25.719Z,94.10
2023-05-13T21:37:28.540Z,94.12
2023-05-13T21:40:31.244Z,94.56
2023-05-13T21:43:34.083Z,94.17
2023-05-13T21:46:36.909Z,93.64
2023-05-13T21:49:40.982Z,93.30
2023-05-13T21:52:43.790Z,93.29
2023-05-13T21:55:46.581Z,93.59
2023-05-13T21:58:49.942Z,94.06
2023-05-13T22:01:52.726Z,95.00
2023-05-13T22:04:56.893Z,95.13
2023-05-13T22:08:01.826Z,94.95
2023-05-13T22:11:04.563Z,94.88
2023-05-13T22:14:07.277Z,94.78
2023-05-13T22:17:10.383Z,94.89
2023-05-13T22:20:15.099Z,94.91
2023-05-13T22:23:17.846Z,95.13
2023-05-13T22:26:21.793Z,95.49
2023-05-13T22:29:24.597Z,95.50
2023-05-13T22:32:27.560Z,95.49
2023-05-13T22:35:32.029Z,95.40
2023-05-13T22:38:34.752Z,94.97
2023-05-13T22:41:37.480Z,94.97
2023-05-13T22:44:40.272Z,95.06
2023-05-13T22:47:42.988Z,94.72
2023-05-13T22:50:47.105Z,95.01
2023-05-13T22:53:49.970Z,95.16
2023-05-13T22:56:52.632Z,94.96
2023-05-13T22:59:55.404Z,94.97
2023-05-13T23:02:58.379Z,95.40
2023-05-13T23:06:02.452Z,95.39
2023-05-13T23:09:05.575Z,95.67
2023-05-13T23:12:08.926Z,95.41
2023-05-13T23:15:14.769Z,95.37
2023-05-13T23:18:17.432Z,95.27
2023-05-13T23:21:21.472Z,95.75
2023-05-13T23:24:24.299Z,95.62
2023-05-13T23:27:27.072Z,95.25
2023-05-13T23:30:29.800Z,95.08
2023-05-13T23:33:32.492Z,95.36
2023-05-13T23:36:36.595Z,95.64
2023-05-13T23:39:39.326Z,95.88
2023-05-13T23:42:43.061Z,95.78
2023-05-13T23:45:46.807Z,95.31
2023-05-13T23:48:49.524Z,95.42
2023-05-13T23:51:53.832Z,95.89
2023-05-13T23:54:56.543Z,95.58
2023-05-13T23:58:00.184Z,96.02
